sensor_id;sensor_type;location;lat;lon;timestamp;temperature;humidity
582;DHT22;277;50.074;8.436;2022-08-01T00:00:47;23.10;99.90
582;DHT22;277;50.074;8.436;2022-08-01T00:03:16;23.00;99.90
582;DHT22;277;50.074;8.436;2022-08-01T00:05:44;23.00;99.90
582;DHT22;277;50.074;8.436;2022-08-01T00:08:13;22.90;99.90
582;DHT22;277;50.074;8.436;2022-08-01T00:10:40;22.80;99.90
582;DHT22;277;50.074;8.436;2022-08-01T00:13:08;22.80;99.90
582;DHT22;277;50.074;8.436;2022-08-01T00:15:37;22.70;99.90
582;DHT22;277;50.074;8.436;2022-08-01T00:18:05;22.70;99.90
582;DHT22;277;50.074;8.436;2022-08-01T00:20:34;22.70;99.90
582;DHT22;277;50.074;8.436;2022-08-01T00:23:02;22.60;99.90
582;DHT22;277;50.074;8.436;2022-08-01T00:25:29;22.60;99.90
582;DHT22;277;50.074;8.436;2022-08-01T00:28:00;22.50;99.90
582;DHT22;277;50.074;8.436;2022-08-01T00:30:30;22.60;99.90
582;DHT22;277;50.074;8.436;2022-08-01T00:32:57;22.60;99.90
582;DHT22;277;50.074;8.436;2022-08-01T00:35:25;22.60;99.90
582;DHT22;277;50.074;8.436;2022-08-01T00:37:54;22.50;99.90
582;DHT22;277;50.074;8.436;2022-08-01T00:40:22;22.50;99.90
582;DHT22;277;50.074;8.436;2022-08-01T00:42:50;22.40;99.90
582;DHT22;277;50.074;8.436;2022-08-01T00:45:18;22.50;99.90
582;DHT22;277;50.074;8.436;2022-08-01T00:47:45;22.40;99.90
582;DHT22;277;50.074;8.436;2022-08-01T00:50:20;22.50;99.90
582;DHT22;277;50.074;8.436;2022-08-01T00:52:50;22.40;99.90
582;DHT22;277;50.074;8.436;2022-08-01T00:55:19;22.30;99.90
582;DHT22;277;50.074;8.436;2022-08-01T00:57:47;22.30;99.90
582;DHT22;277;50.074;8.436;2022-08-01T01:00:32;22.30;99.90
582;DHT22;277;50.074;8.436;2022-08-01T01:03:20;22.20;99.90
582;DHT22;277;50.074;8.436;2022-08-01T01:06:06;22.20;99.90
582;DHT22;277;50.074;8.436;2022-08-01T01:08:35;22.20;99.90
582;DHT22;277;50.074;8.436;2022-08-01T01:11:11;22.10;99.90
582;DHT22;277;50.074;8.436;2022-08-01T01:13:41;22.10;99.90
582;DHT22;277;50.074;8.436;2022-08-01T01:16:17;22.10;99.90
582;DHT22;277;50.074;8.436;2022-08-01T01:18:46;22.10;99.90
582;DHT22;277;50.074;8.436;2022-08-01T01:21:26;22.10;99.90
582;DHT22;277;50.074;8.436;2022-08-01T01:23:58;22.20;99.90
582;DHT22;277;50.074;8.436;2022-08-01T01:26:31;22.10;99.90
582;DHT22;277;50.074;8.436;2022-08-01T01:29:06;22.10;99.90
582;DHT22;277;50.074;8.436;2022-08-01T01:31:38;22.00;99.90
582;DHT22;277;50.074;8.436;2022-08-01T01:34:07;22.00;99.90
582;DHT22;277;50.074;8.436;2022-08-01T01:36:36;21.90;99.90
582;DHT22;277;50.074;8.436;2022-08-01T01:39:05;21.90;99.90
582;DHT22;277;50.074;8.436;2022-08-01T01:41:34;21.90;99.90
582;DHT22;277;50.074;8.436;2022-08-01T01:44:03;21.90;99.90
582;DHT22;277;50.074;8.436;2022-08-01T01:46:33;21.90;99.90
582;DHT22;277;50.074;8.436;2022-08-01T01:49:01;21.90;99.90
582;DHT22;277;50.074;8.436;2022-08-01T01:51:29;21.90;99.90
582;DHT22;277;50.074;8.436;2022-08-01T01:53:57;21.80;99.90
582;DHT22;277;50.074;8.436;2022-08-01T01:56:25;21.80;99.90
582;DHT22;277;50.074;8.436;2022-08-01T01:58:55;21.70;99.90
582;DHT22;277;50.074;8.436;2022-08-01T02:01:24;21.70;99.90
582;DHT22;277;50.074;8.436;2022-08-01T02:04:14;21.50;99.90
582;DHT22;277;50.074;8.436;2022-08-01T02:06:43;21.60;99.90
582;DHT22;277;50.074;8.436;2022-08-01T02:09:11;21.60;99.90
582;DHT22;277;50.074;8.436;2022-08-01T02:11:39;21.50;99.90
582;DHT22;277;50.074;8.436;2022-08-01T02:14:27;21.40;99.90
582;DHT22;277;50.074;8.436;2022-08-01T02:16:56;21.50;99.90
582;DHT22;277;50.074;8.436;2022-08-01T02:19:26;21.40;99.90
582;DHT22;277;50.074;8.436;2022-08-01T02:21:55;21.40;99.90
582;DHT22;277;50.074;8.436;2022-08-01T02:24:24;21.30;99.90
582;DHT22;277;50.074;8.436;2022-08-01T02:26:56;21.30;99.90
582;DHT22;277;50.074;8.436;2022-08-01T02:29:27;21.20;99.90
582;DHT22;277;50.074;8.436;2022-08-01T02:31:59;21.30;99.90
582;DHT22;277;50.074;8.436;2022-08-01T02:34:29;21.20;99.90
582;DHT22;277;50.074;8.436;2022-08-01T02:36:58;21.20;99.90
582;DHT22;277;50.074;8.436;2022-08-01T02:39:28;21.20;99.90
582;DHT22;277;50.074;8.436;2022-08-01T02:41:57;21.10;99.90
582;DHT22;277;50.074;8.436;2022-08-01T02:44:26;21.10;99.90
582;DHT22;277;50.074;8.436;2022-08-01T02:46:56;21.20;99.90
582;DHT22;277;50.074;8.436;2022-08-01T02:49:31;21.20;99.90
582;DHT22;277;50.074;8.436;2022-08-01T02:52:00;21.20;99.90
582;DHT22;277;50.074;8.436;2022-08-01T02:54:29;21.20;99.90
582;DHT22;277;50.074;8.436;2022-08-01T02:56:58;21.10;99.90
582;DHT22;277;50.074;8.436;2022-08-01T02:59:29;21.00;99.90
582;DHT22;277;50.074;8.436;2022-08-01T03:01:57;20.90;99.90
582;DHT22;277;50.074;8.436;2022-08-01T03:04:28;20.80;99.90
582;DHT22;277;50.074;8.436;2022-08-01T03:06:58;20.70;99.90
582;DHT22;277;50.074;8.436;2022-08-01T03:09:27;20.60;99.90
582;DHT22;277;50.074;8.436;2022-08-01T03:11:57;20.70;99.90
582;DHT22;277;50.074;8.436;2022-08-01T03:14:26;20.60;99.90
582;DHT22;277;50.074;8.436;2022-08-01T03:16:54;20.50;99.90
582;DHT22;277;50.074;8.436;2022-08-01T03:19:24;20.40;99.90
582;DHT22;277;50.074;8.436;2022-08-01T03:21:53;20.40;99.90
582;DHT22;277;50.074;8.436;2022-08-01T03:24:24;20.30;99.90
582;DHT22;277;50.074;8.436;2022-08-01T03:26:53;20.30;99.90
582;DHT22;277;50.074;8.436;2022-08-01T03:29:22;20.40;99.90
582;DHT22;277;50.074;8.436;2022-08-01T03:31:51;20.30;99.90
582;DHT22;277;50.074;8.436;2022-08-01T03:34:20;20.30;99.90
582;DHT22;277;50.074;8.436;2022-08-01T03:36:58;20.40;99.90
582;DHT22;277;50.074;8.436;2022-08-01T03:39:29;20.40;99.90
582;DHT22;277;50.074;8.436;2022-08-01T03:41:59;20.40;99.90
582;DHT22;277;50.074;8.436;2022-08-01T03:44:28;20.40;99.90
582;DHT22;277;50.074;8.436;2022-08-01T03:47:00;20.40;99.90
582;DHT22;277;50.074;8.436;2022-08-01T03:49:30;20.50;99.90
582;DHT22;277;50.074;8.436;2022-08-01T03:51:58;20.60;99.90
582;DHT22;277;50.074;8.436;2022-08-01T03:54:30;20.60;99.90
582;DHT22;277;50.074;8.436;2022-08-01T03:57:00;20.60;99.90
582;DHT22;277;50.074;8.436;2022-08-01T03:59:28;20.60;99.90
582;DHT22;277;50.074;8.436;2022-08-01T04:01:56;20.70;99.90
582;DHT22;277;50.074;8.436;2022-08-01T04:04:24;20.60;99.90
582;DHT22;277;50.074;8.436;2022-08-01T04:06:52;20.60;99.90
582;DHT22;277;50.074;8.436;2022-08-01T04:09:21;20.60;99.90
582;DHT22;277;50.074;8.436;2022-08-01T04:11:50;20.60;99.90
582;DHT22;277;50.074;8.436;2022-08-01T04:14:19;20.60;99.90
582;DHT22;277;50.074;8.436;2022-08-01T04:16:46;20.50;99.90
582;DHT22;277;50.074;8.436;2022-08-01T04:19:14;20.60;99.90
582;DHT22;277;50.074;8.436;2022-08-01T04:21:42;20.60;99.90
582;DHT22;277;50.074;8.436;2022-08-01T04:24:10;20.50;99.90
582;DHT22;277;50.074;8.436;2022-08-01T04:26:40;20.40;99.90
582;DHT22;277;50.074;8.436;2022-08-01T04:29:10;20.40;99.90
582;DHT22;277;50.074;8.436;2022-08-01T04:31:38;20.50;99.90
582;DHT22;277;50.074;8.436;2022-08-01T04:34:09;20.40;99.90
582;DHT22;277;50.074;8.436;2022-08-01T04:36:37;20.40;99.90
582;DHT22;277;50.074;8.436;2022-08-01T04:39:08;20.40;99.90
582;DHT22;277;50.074;8.436;2022-08-01T04:41:36;20.40;99.90
582;DHT22;277;50.074;8.436;2022-08-01T04:44:04;20.40;99.90
582;DHT22;277;50.074;8.436;2022-08-01T04:46:34;20.40;99.90
582;DHT22;277;50.074;8.436;2022-08-01T04:49:04;20.50;99.90
582;DHT22;277;50.074;8.436;2022-08-01T04:51:33;20.50;99.90
582;DHT22;277;50.074;8.436;2022-08-01T04:54:00;20.60;99.90
582;DHT22;277;50.074;8.436;2022-08-01T04:56:28;20.60;99.90
582;DHT22;277;50.074;8.436;2022-08-01T04:58:56;20.60;99.90
582;DHT22;277;50.074;8.436;2022-08-01T05:01:50;20.70;99.90
582;DHT22;277;50.074;8.436;2022-08-01T05:04:18;20.80;99.90
582;DHT22;277;50.074;8.436;2022-08-01T05:06:46;20.80;99.90
582;DHT22;277;50.074;8.436;2022-08-01T05:09:13;20.90;99.90
582;DHT22;277;50.074;8.436;2022-08-01T05:11:42;20.90;99.90
582;DHT22;277;50.074;8.436;2022-08-01T05:14:10;21.00;99.90
582;DHT22;277;50.074;8.436;2022-08-01T05:16:37;21.00;99.90
582;DHT22;277;50.074;8.436;2022-08-01T05:19:07;21.10;99.90
582;DHT22;277;50.074;8.436;2022-08-01T05:21:35;21.00;99.90
582;DHT22;277;50.074;8.436;2022-08-01T05:24:04;21.10;99.90
582;DHT22;277;50.074;8.436;2022-08-01T05:26:32;21.20;99.90
582;DHT22;277;50.074;8.436;2022-08-01T05:29:01;21.30;99.90
582;DHT22;277;50.074;8.436;2022-08-01T05:31:29;21.30;99.90
582;DHT22;277;50.074;8.436;2022-08-01T05:34:00;21.40;99.90
582;DHT22;277;50.074;8.436;2022-08-01T05:36:29;21.50;99.90
582;DHT22;277;50.074;8.436;2022-08-01T05:38:57;21.60;99.90
582;DHT22;277;50.074;8.436;2022-08-01T05:41:25;21.60;99.90
582;DHT22;277;50.074;8.436;2022-08-01T05:43:52;21.70;99.90
582;DHT22;277;50.074;8.436;2022-08-01T05:46:20;21.80;99.90
582;DHT22;277;50.074;8.436;2022-08-01T05:48:51;21.80;99.90
582;DHT22;277;50.074;8.436;2022-08-01T05:51:19;21.90;99.90
582;DHT22;277;50.074;8.436;2022-08-01T05:53:48;21.90;99.90
582;DHT22;277;50.074;8.436;2022-08-01T05:56:16;22.00;99.90
582;DHT22;277;50.074;8.436;2022-08-01T05:58:44;22.00;99.90
582;DHT22;277;50.074;8.436;2022-08-01T06:01:11;22.10;99.90
582;DHT22;277;50.074;8.436;2022-08-01T06:03:39;22.20;99.90
582;DHT22;277;50.074;8.436;2022-08-01T06:06:07;22.20;99.90
582;DHT22;277;50.074;8.436;2022-08-01T06:08:35;22.20;99.90
582;DHT22;277;50.074;8.436;2022-08-01T06:11:04;22.30;99.90
582;DHT22;277;50.074;8.436;2022-08-01T06:13:32;22.20;99.90
582;DHT22;277;50.074;8.436;2022-08-01T06:16:14;22.30;99.90
582;DHT22;277;50.074;8.436;2022-08-01T06:18:42;22.30;99.90
582;DHT22;277;50.074;8.436;2022-08-01T06:21:10;22.30;99.90
582;DHT22;277;50.074;8.436;2022-08-01T06:23:37;22.40;99.90
582;DHT22;277;50.074;8.436;2022-08-01T06:26:09;22.50;99.90
582;DHT22;277;50.074;8.436;2022-08-01T06:28:37;22.60;99.90
582;DHT22;277;50.074;8.436;2022-08-01T06:31:04;22.80;99.90
582;DHT22;277;50.074;8.436;2022-08-01T06:33:32;22.90;99.90
582;DHT22;277;50.074;8.436;2022-08-01T06:36:00;23.00;99.90
582;DHT22;277;50.074;8.436;2022-08-01T06:38:28;23.10;99.90
582;DHT22;277;50.074;8.436;2022-08-01T06:40:55;23.20;99.90
582;DHT22;277;50.074;8.436;2022-08-01T06:43:25;23.20;99.90
582;DHT22;277;50.074;8.436;2022-08-01T06:45:52;23.20;99.90
582;DHT22;277;50.074;8.436;2022-08-01T06:48:20;23.10;99.90
582;DHT22;277;50.074;8.436;2022-08-01T06:50:49;23.10;99.90
582;DHT22;277;50.074;8.436;2022-08-01T06:53:34;23.10;99.90
582;DHT22;277;50.074;8.436;2022-08-01T06:56:02;23.20;99.90
582;DHT22;277;50.074;8.436;2022-08-01T06:58:31;23.20;99.90
582;DHT22;277;50.074;8.436;2022-08-01T07:01:00;23.20;99.90
582;DHT22;277;50.074;8.436;2022-08-01T07:03:30;23.30;99.90
582;DHT22;277;50.074;8.436;2022-08-01T07:06:18;23.40;99.90
582;DHT22;277;50.074;8.436;2022-08-01T07:08:46;23.30;99.90
582;DHT22;277;50.074;8.436;2022-08-01T07:11:13;23.30;99.90
582;DHT22;277;50.074;8.436;2022-08-01T07:13:43;23.30;99.90
582;DHT22;277;50.074;8.436;2022-08-01T07:16:12;23.40;99.90
582;DHT22;277;50.074;8.436;2022-08-01T07:18:39;23.50;99.90
582;DHT22;277;50.074;8.436;2022-08-01T07:21:07;23.70;99.90
582;DHT22;277;50.074;8.436;2022-08-01T07:23:55;23.70;99.90
582;DHT22;277;50.074;8.436;2022-08-01T07:26:24;23.70;99.90
582;DHT22;277;50.074;8.436;2022-08-01T07:28:54;23.80;99.90
582;DHT22;277;50.074;8.436;2022-08-01T07:31:22;24.00;99.90
582;DHT22;277;50.074;8.436;2022-08-01T07:33:54;24.10;99.90
582;DHT22;277;50.074;8.436;2022-08-01T07:36:22;24.00;99.90
582;DHT22;277;50.074;8.436;2022-08-01T07:38:50;24.00;99.90
582;DHT22;277;50.074;8.436;2022-08-01T07:41:18;23.90;99.90
582;DHT22;277;50.074;8.436;2022-08-01T07:44:07;23.90;99.90
582;DHT22;277;50.074;8.436;2022-08-01T07:46:35;24.00;99.90
582;DHT22;277;50.074;8.436;2022-08-01T07:49:03;24.10;99.90
582;DHT22;277;50.074;8.436;2022-08-01T07:51:30;24.20;99.90
582;DHT22;277;50.074;8.436;2022-08-01T07:53:58;24.20;99.90
582;DHT22;277;50.074;8.436;2022-08-01T07:56:26;24.20;99.90
582;DHT22;277;50.074;8.436;2022-08-01T07:58:54;24.20;99.90
582;DHT22;277;50.074;8.436;2022-08-01T08:01:23;24.40;99.90
582;DHT22;277;50.074;8.436;2022-08-01T08:03:51;24.70;99.90
582;DHT22;277;50.074;8.436;2022-08-01T08:06:19;24.80;99.90
582;DHT22;277;50.074;8.436;2022-08-01T08:08:46;24.70;99.90
582;DHT22;277;50.074;8.436;2022-08-01T08:11:14;24.70;99.90
582;DHT22;277;50.074;8.436;2022-08-01T08:13:42;24.60;99.90
582;DHT22;277;50.074;8.436;2022-08-01T08:16:10;24.60;99.90
582;DHT22;277;50.074;8.436;2022-08-01T08:18:39;24.60;99.90
582;DHT22;277;50.074;8.436;2022-08-01T08:21:07;24.50;99.90
582;DHT22;277;50.074;8.436;2022-08-01T08:23:35;24.60;99.90
582;DHT22;277;50.074;8.436;2022-08-01T08:26:24;24.50;99.90
582;DHT22;277;50.074;8.436;2022-08-01T08:28:54;24.50;99.90
582;DHT22;277;50.074;8.436;2022-08-01T08:31:21;24.50;99.90
582;DHT22;277;50.074;8.436;2022-08-01T08:34:10;24.40;99.90
582;DHT22;277;50.074;8.436;2022-08-01T08:36:41;24.20;99.90
582;DHT22;277;50.074;8.436;2022-08-01T08:39:13;24.00;99.90
582;DHT22;277;50.074;8.436;2022-08-01T08:41:45;24.00;99.90
582;DHT22;277;50.074;8.436;2022-08-01T08:44:15;23.90;99.90
582;DHT22;277;50.074;8.436;2022-08-01T08:46:44;24.00;99.90
582;DHT22;277;50.074;8.436;2022-08-01T08:49:16;24.00;99.90
582;DHT22;277;50.074;8.436;2022-08-01T08:51:44;24.00;99.90
582;DHT22;277;50.074;8.436;2022-08-01T08:54:14;23.90;99.90
582;DHT22;277;50.074;8.436;2022-08-01T08:56:42;23.80;99.90
582;DHT22;277;50.074;8.436;2022-08-01T08:59:11;23.70;99.90
582;DHT22;277;50.074;8.436;2022-08-01T09:01:39;23.80;99.90
582;DHT22;277;50.074;8.436;2022-08-01T09:04:07;24.00;99.90
582;DHT22;277;50.074;8.436;2022-08-01T09:06:37;24.30;99.90
582;DHT22;277;50.074;8.436;2022-08-01T09:09:05;24.60;99.90
582;DHT22;277;50.074;8.436;2022-08-01T09:11:33;24.80;99.90
582;DHT22;277;50.074;8.436;2022-08-01T09:14:05;24.90;99.90
582;DHT22;277;50.074;8.436;2022-08-01T09:16:33;25.10;99.90
582;DHT22;277;50.074;8.436;2022-08-01T09:19:08;25.30;99.90
582;DHT22;277;50.074;8.436;2022-08-01T09:21:55;25.50;99.90
582;DHT22;277;50.074;8.436;2022-08-01T09:24:30;25.80;99.90
582;DHT22;277;50.074;8.436;2022-08-01T09:26:58;26.20;99.90
582;DHT22;277;50.074;8.436;2022-08-01T09:29:29;26.60;99.90
582;DHT22;277;50.074;8.436;2022-08-01T09:32:06;27.20;99.90
582;DHT22;277;50.074;8.436;2022-08-01T09:34:41;27.70;99.90
582;DHT22;277;50.074;8.436;2022-08-01T09:37:13;28.20;99.90
582;DHT22;277;50.074;8.436;2022-08-01T09:39:49;28.60;99.90
582;DHT22;277;50.074;8.436;2022-08-01T09:42:24;28.90;99.90
582;DHT22;277;50.074;8.436;2022-08-01T09:44:55;29.10;99.90
582;DHT22;277;50.074;8.436;2022-08-01T09:47:23;29.30;99.90
582;DHT22;277;50.074;8.436;2022-08-01T09:50:04;29.30;99.90
582;DHT22;277;50.074;8.436;2022-08-01T09:52:38;29.30;99.90
582;DHT22;277;50.074;8.436;2022-08-01T09:55:07;29.00;99.90
582;DHT22;277;50.074;8.436;2022-08-01T09:57:34;28.90;99.90
582;DHT22;277;50.074;8.436;2022-08-01T10:00:03;28.80;99.90
582;DHT22;277;50.074;8.436;2022-08-01T10:02:32;28.90;99.90
582;DHT22;277;50.074;8.436;2022-08-01T10:05:01;28.90;99.90
582;DHT22;277;50.074;8.436;2022-08-01T10:07:34;28.80;99.90
582;DHT22;277;50.074;8.436;2022-08-01T10:10:12;28.80;99.90
582;DHT22;277;50.074;8.436;2022-08-01T10:12:40;28.70;99.90
582;DHT22;277;50.074;8.436;2022-08-01T10:15:10;28.30;99.90
582;DHT22;277;50.074;8.436;2022-08-01T10:17:39;27.80;99.90
582;DHT22;277;50.074;8.436;2022-08-01T10:20:17;27.50;99.90
582;DHT22;277;50.074;8.436;2022-08-01T10:22:58;27.40;99.90
582;DHT22;277;50.074;8.436;2022-08-01T10:25:30;27.20;99.90
582;DHT22;277;50.074;8.436;2022-08-01T10:28:10;27.10;99.90
582;DHT22;277;50.074;8.436;2022-08-01T10:30:47;27.20;99.90
582;DHT22;277;50.074;8.436;2022-08-01T10:33:15;27.00;99.90
582;DHT22;277;50.074;8.436;2022-08-01T10:36:03;27.30;99.90
582;DHT22;277;50.074;8.436;2022-08-01T10:38:34;28.10;99.90
582;DHT22;277;50.074;8.436;2022-08-01T10:41:04;28.80;99.90
582;DHT22;277;50.074;8.436;2022-08-01T10:43:34;29.20;99.90
582;DHT22;277;50.074;8.436;2022-08-01T10:46:02;29.40;99.90
582;DHT22;277;50.074;8.436;2022-08-01T10:48:31;29.40;99.90
582;DHT22;277;50.074;8.436;2022-08-01T10:51:03;29.80;99.90
582;DHT22;277;50.074;8.436;2022-08-01T10:53:48;30.30;99.10
582;DHT22;277;50.074;8.436;2022-08-01T10:56:21;30.60;98.80
582;DHT22;277;50.074;8.436;2022-08-01T10:58:59;31.10;98.10
582;DHT22;277;50.074;8.436;2022-08-01T11:01:32;31.80;97.60
582;DHT22;277;50.074;8.436;2022-08-01T11:04:07;31.70;96.90
582;DHT22;277;50.074;8.436;2022-08-01T11:06:52;31.60;96.70
582;DHT22;277;50.074;8.436;2022-08-01T11:09:22;31.30;96.80
582;DHT22;277;50.074;8.436;2022-08-01T11:12:06;31.00;96.60
582;DHT22;277;50.074;8.436;2022-08-01T11:17:32;29.90;98.00
582;DHT22;277;50.074;8.436;2022-08-01T11:20:04;29.50;98.60
582;DHT22;277;50.074;8.436;2022-08-01T11:25:17;28.20;99.90
582;DHT22;277;50.074;8.436;2022-08-01T11:27:46;28.00;99.90
582;DHT22;277;50.074;8.436;2022-08-01T11:30:21;27.90;99.90
582;DHT22;277;50.074;8.436;2022-08-01T11:32:50;27.80;99.90
582;DHT22;277;50.074;8.436;2022-08-01T11:35:37;27.60;99.90
582;DHT22;277;50.074;8.436;2022-08-01T11:38:22;27.70;99.90
582;DHT22;277;50.074;8.436;2022-08-01T11:41:02;27.80;99.90
582;DHT22;277;50.074;8.436;2022-08-01T11:43:39;28.00;99.90
582;DHT22;277;50.074;8.436;2022-08-01T11:52:04;29.40;98.40
582;DHT22;277;50.074;8.436;2022-08-01T11:54:34;29.40;98.70
582;DHT22;277;50.074;8.436;2022-08-01T11:57:03;29.50;98.40
582;DHT22;277;50.074;8.436;2022-08-01T11:59:37;29.60;98.60
582;DHT22;277;50.074;8.436;2022-08-01T12:02:15;29.60;97.80
582;DHT22;277;50.074;8.436;2022-08-01T12:04:56;29.70;98.10
582;DHT22;277;50.074;8.436;2022-08-01T12:07:25;29.80;97.50
582;DHT22;277;50.074;8.436;2022-08-01T12:09:57;30.10;97.20
582;DHT22;277;50.074;8.436;2022-08-01T12:12:25;30.30;97.10
582;DHT22;277;50.074;8.436;2022-08-01T12:14:54;30.50;96.10
582;DHT22;277;50.074;8.436;2022-08-01T12:17:29;30.30;96.80
582;DHT22;277;50.074;8.436;2022-08-01T12:19:58;30.60;97.20
582;DHT22;277;50.074;8.436;2022-08-01T12:22:26;30.90;95.50
582;DHT22;277;50.074;8.436;2022-08-01T12:24:54;31.30;95.40
582;DHT22;277;50.074;8.436;2022-08-01T12:27:25;31.80;94.90
582;DHT22;277;50.074;8.436;2022-08-01T12:29:55;32.10;94.20
582;DHT22;277;50.074;8.436;2022-08-01T12:32:25;32.40;93.40
582;DHT22;277;50.074;8.436;2022-08-01T12:35:02;32.10;93.00
582;DHT22;277;50.074;8.436;2022-08-01T12:37:30;31.70;93.10
582;DHT22;277;50.074;8.436;2022-08-01T12:39:58;31.60;93.60
582;DHT22;277;50.074;8.436;2022-08-01T12:42:26;31.50;93.60
582;DHT22;277;50.074;8.436;2022-08-01T12:44:55;31.50;93.40
582;DHT22;277;50.074;8.436;2022-08-01T12:47:23;31.40;93.40
582;DHT22;277;50.074;8.436;2022-08-01T12:49:51;31.20;93.30
582;DHT22;277;50.074;8.436;2022-08-01T12:52:19;31.00;93.80
582;DHT22;277;50.074;8.436;2022-08-01T12:55:05;30.70;93.20
582;DHT22;277;50.074;8.436;2022-08-01T12:57:36;30.30;93.00
582;DHT22;277;50.074;8.436;2022-08-01T13:00:06;30.10;93.50
582;DHT22;277;50.074;8.436;2022-08-01T13:02:34;30.20;93.70
582;DHT22;277;50.074;8.436;2022-08-01T13:05:02;30.30;93.70
582;DHT22;277;50.074;8.436;2022-08-01T13:07:37;30.30;94.10
582;DHT22;277;50.074;8.436;2022-08-01T13:10:11;30.40;94.00
582;DHT22;277;50.074;8.436;2022-08-01T13:12:40;30.30;93.90
582;DHT22;277;50.074;8.436;2022-08-01T13:20:51;30.90;93.10
582;DHT22;277;50.074;8.436;2022-08-01T13:23:34;30.90;92.70
582;DHT22;277;50.074;8.436;2022-08-01T13:26:36;30.90;93.40
582;DHT22;277;50.074;8.436;2022-08-01T13:29:04;30.60;93.10
582;DHT22;277;50.074;8.436;2022-08-01T13:31:33;30.40;93.20
582;DHT22;277;50.074;8.436;2022-08-01T13:34:01;30.30;93.30
582;DHT22;277;50.074;8.436;2022-08-01T13:36:31;30.20;93.40
582;DHT22;277;50.074;8.436;2022-08-01T13:38:59;30.10;93.50
582;DHT22;277;50.074;8.436;2022-08-01T13:41:44;29.80;93.70
582;DHT22;277;50.074;8.436;2022-08-01T13:44:12;29.50;94.10
582;DHT22;277;50.074;8.436;2022-08-01T13:46:41;29.30;94.20
582;DHT22;277;50.074;8.436;2022-08-01T13:49:16;29.00;95.20
582;DHT22;277;50.074;8.436;2022-08-01T13:51:47;28.10;96.20
582;DHT22;277;50.074;8.436;2022-08-01T13:54:16;27.70;96.90
582;DHT22;277;50.074;8.436;2022-08-01T13:56:44;27.70;97.60
582;DHT22;277;50.074;8.436;2022-08-01T13:59:12;27.60;97.70
582;DHT22;277;50.074;8.436;2022-08-01T14:01:40;27.60;98.20
582;DHT22;277;50.074;8.436;2022-08-01T14:04:08;27.50;98.20
582;DHT22;277;50.074;8.436;2022-08-01T14:06:35;27.40;98.30
582;DHT22;277;50.074;8.436;2022-08-01T14:09:05;27.20;99.70
582;DHT22;277;50.074;8.436;2022-08-01T14:11:43;27.00;99.50
582;DHT22;277;50.074;8.436;2022-08-01T14:14:11;26.80;99.90
582;DHT22;277;50.074;8.436;2022-08-01T14:16:40;26.80;99.90
582;DHT22;277;50.074;8.436;2022-08-01T14:19:07;26.90;99.90
582;DHT22;277;50.074;8.436;2022-08-01T14:21:35;27.10;99.90
582;DHT22;277;50.074;8.436;2022-08-01T14:24:03;27.20;99.90
582;DHT22;277;50.074;8.436;2022-08-01T14:26:34;27.30;99.90
582;DHT22;277;50.074;8.436;2022-08-01T14:29:02;27.40;99.90
582;DHT22;277;50.074;8.436;2022-08-01T14:31:30;27.50;99.90
582;DHT22;277;50.074;8.436;2022-08-01T14:34:00;27.60;99.90
582;DHT22;277;50.074;8.436;2022-08-01T14:36:28;27.60;99.90
582;DHT22;277;50.074;8.436;2022-08-01T14:39:03;27.50;99.90
582;DHT22;277;50.074;8.436;2022-08-01T14:41:32;27.60;99.90
582;DHT22;277;50.074;8.436;2022-08-01T14:44:01;27.60;99.90
582;DHT22;277;50.074;8.436;2022-08-01T14:46:30;27.60;99.90
582;DHT22;277;50.074;8.436;2022-08-01T14:48:59;27.70;99.90
582;DHT22;277;50.074;8.436;2022-08-01T14:51:27;27.70;99.90
582;DHT22;277;50.074;8.436;2022-08-01T14:53:59;27.90;99.90
582;DHT22;277;50.074;8.436;2022-08-01T14:56:29;27.80;99.90
582;DHT22;277;50.074;8.436;2022-08-01T14:58:57;27.90;99.90
582;DHT22;277;50.074;8.436;2022-08-01T15:01:26;27.80;99.90
582;DHT22;277;50.074;8.436;2022-08-01T15:03:54;27.70;99.90
582;DHT22;277;50.074;8.436;2022-08-01T15:06:22;27.70;99.90
582;DHT22;277;50.074;8.436;2022-08-01T15:08:50;27.60;99.90
582;DHT22;277;50.074;8.436;2022-08-01T15:11:17;27.60;99.90
582;DHT22;277;50.074;8.436;2022-08-01T15:13:45;27.80;99.90
582;DHT22;277;50.074;8.436;2022-08-01T15:16:34;27.80;99.70
582;DHT22;277;50.074;8.436;2022-08-01T15:19:02;27.90;99.90
582;DHT22;277;50.074;8.436;2022-08-01T15:21:30;28.00;99.90
582;DHT22;277;50.074;8.436;2022-08-01T15:24:07;28.00;99.80
582;DHT22;277;50.074;8.436;2022-08-01T15:26:35;27.90;99.30
582;DHT22;277;50.074;8.436;2022-08-01T15:29:03;27.90;99.20
582;DHT22;277;50.074;8.436;2022-08-01T15:31:31;27.90;99.20
582;DHT22;277;50.074;8.436;2022-08-01T15:34:00;27.70;99.40
582;DHT22;277;50.074;8.436;2022-08-01T15:36:29;27.80;99.40
582;DHT22;277;50.074;8.436;2022-08-01T15:38:57;28.00;99.50
582;DHT22;277;50.074;8.436;2022-08-01T15:41:25;28.00;99.10
582;DHT22;277;50.074;8.436;2022-08-01T15:43:53;28.10;99.10
582;DHT22;277;50.074;8.436;2022-08-01T15:46:21;28.00;99.70
582;DHT22;277;50.074;8.436;2022-08-01T15:48:49;28.10;99.90
582;DHT22;277;50.074;8.436;2022-08-01T15:51:19;27.90;99.40
582;DHT22;277;50.074;8.436;2022-08-01T15:53:46;27.90;99.60
582;DHT22;277;50.074;8.436;2022-08-01T15:56:14;27.80;99.00
582;DHT22;277;50.074;8.436;2022-08-01T15:58:42;27.70;99.50
582;DHT22;277;50.074;8.436;2022-08-01T16:01:10;27.70;99.90
582;DHT22;277;50.074;8.436;2022-08-01T16:03:37;27.60;98.70
582;DHT22;277;50.074;8.436;2022-08-01T16:06:05;27.70;99.20
582;DHT22;277;50.074;8.436;2022-08-01T16:08:34;27.70;98.90
582;DHT22;277;50.074;8.436;2022-08-01T16:11:02;27.80;99.00
582;DHT22;277;50.074;8.436;2022-08-01T16:13:30;27.80;99.70
582;DHT22;277;50.074;8.436;2022-08-01T16:15:57;27.60;99.90
582;DHT22;277;50.074;8.436;2022-08-01T16:18:25;27.60;99.90
582;DHT22;277;50.074;8.436;2022-08-01T16:20:53;27.60;99.90
582;DHT22;277;50.074;8.436;2022-08-01T16:23:21;27.50;99.90
582;DHT22;277;50.074;8.436;2022-08-01T16:25:50;27.50;99.90
582;DHT22;277;50.074;8.436;2022-08-01T16:28:18;27.60;99.90
582;DHT22;277;50.074;8.436;2022-08-01T16:30:46;27.60;99.50
582;DHT22;277;50.074;8.436;2022-08-01T16:33:34;27.60;99.90
582;DHT22;277;50.074;8.436;2022-08-01T16:36:20;27.60;99.90
582;DHT22;277;50.074;8.436;2022-08-01T16:38:50;27.40;99.70
582;DHT22;277;50.074;8.436;2022-08-01T16:41:19;27.50;99.90
582;DHT22;277;50.074;8.436;2022-08-01T16:43:47;27.40;99.80
582;DHT22;277;50.074;8.436;2022-08-01T16:46:20;27.40;99.90
582;DHT22;277;50.074;8.436;2022-08-01T16:48:48;27.30;99.90
582;DHT22;277;50.074;8.436;2022-08-01T16:51:16;27.20;99.90
582;DHT22;277;50.074;8.436;2022-08-01T16:53:45;27.10;99.90
582;DHT22;277;50.074;8.436;2022-08-01T16:56:12;27.10;99.90
582;DHT22;277;50.074;8.436;2022-08-01T16:58:42;26.90;99.90
582;DHT22;277;50.074;8.436;2022-08-01T17:01:09;26.80;99.90
582;DHT22;277;50.074;8.436;2022-08-01T17:03:57;26.60;99.90
582;DHT22;277;50.074;8.436;2022-08-01T17:06:27;26.50;99.90
582;DHT22;277;50.074;8.436;2022-08-01T17:08:55;26.50;99.90
582;DHT22;277;50.074;8.436;2022-08-01T17:11:23;26.50;99.90
582;DHT22;277;50.074;8.436;2022-08-01T17:13:52;26.60;99.90